createdAt,value
2022-10-29T00:00:16.921Z,71.00
2022-10-29T00:02:43.962Z,71.00
2022-10-29T00:05:11.056Z,70.90
2022-10-29T00:07:38.472Z,70.80
2022-10-29T00:10:05.906Z,70.70
2022-10-29T00:12:32.831Z,70.70
2022-10-29T00:14:59.871Z,70.80
2022-10-29T00:17:26.795Z,70.90
2022-10-29T00:19:53.905Z,71.10
2022-10-29T00:22:21.025Z,71.20
2022-10-29T00:24:48.055Z,71.30
2022-10-29T00:27:16.388Z,71.30
2022-10-29T00:29:45.657Z,71.40
2022-10-29T00:32:12.723Z,71.30
2022-10-29T00:34:39.720Z,71.40
2022-10-29T00:37:06.904Z,71.30
2022-10-29T00:39:34.403Z,71.30
2022-10-29T00:42:01.676Z,71.20
2022-10-29T00:44:30.550Z,71.20
2022-10-29T00:47:03.483Z,71.20
2022-10-29T00:49:32.145Z,71.10
2022-10-29T00:52:01.080Z,71.00
2022-10-29T00:54:28.556Z,71.10
2022-10-29T00:57:19.992Z,71.00
2022-10-29T00:59:46.942Z,70.80
2022-10-29T01:02:14.369Z,70.80
2022-10-29T01:04:41.929Z,70.70
2022-10-29T01:07:09.354Z,70.90
2022-10-29T01:09:36.637Z,70.80
2022-10-29T01:12:26.037Z,70.80
2022-10-29T01:15:05.779Z,70.70
2022-10-29T01:17:46.904Z,70.90
2022-10-29T01:20:36.397Z,70.90
2022-10-29T01:23:34.566Z,70.90
2022-10-29T01:26:20.551Z,70.70
2022-10-29T01:29:14.025Z,70.80
2022-10-29T01:32:04.341Z,70.90
2022-10-29T01:34:38.083Z,71.00
2022-10-29T01:37:14.962Z,71.00
2022-10-29T01:39:45.838Z,70.90
2022-10-29T01:42:14.943Z,70.90
2022-10-29T01:44:53.735Z,70.90
2022-10-29T01:47:21.008Z,70.90
2022-10-29T01:49:54.286Z,70.90
2022-10-29T01:52:22.104Z,70.60
2022-10-29T01:54:49.065Z,70.40
2022-10-29T01:57:33.400Z,70.40
2022-10-29T02:00:17.475Z,70.20
2022-10-29T02:03:03.947Z,70.20
2022-10-29T02:06:03.339Z,70.30
2022-10-29T02:08:35.891Z,70.20
2022-10-29T02:11:17.994Z,70.40
2022-10-29T02:13:49.002Z,70.20
2022-10-29T02:16:16.012Z,70.20
2022-10-29T02:18:44.006Z,70.30
2022-10-29T02:21:10.962Z,70.40
2022-10-29T02:23:38.001Z,70.40
2022-10-29T02:26:04.979Z,70.40
2022-10-29T02:28:31.993Z,70.40
2022-10-29T02:30:58.971Z,70.50
2022-10-29T02:33:25.946Z,70.50
2022-10-29T02:35:52.907Z,70.40
2022-10-29T02:38:19.838Z,70.40
2022-10-29T02:40:46.786Z,70.50
2022-10-29T02:43:13.811Z,70.40
2022-10-29T02:45:40.775Z,70.60
2022-10-29T02:48:08.028Z,70.60
2022-10-29T02:50:35.171Z,70.40
2022-10-29T02:53:02.119Z,70.50
2022-10-29T02:55:29.064Z,70.60
2022-10-29T02:57:56.313Z,70.60
2022-10-29T03:00:23.367Z,70.70
2022-10-29T03:02:52.526Z,70.90
2022-10-29T03:05:19.818Z,71.00
2022-10-29T03:07:46.767Z,71.00
2022-10-29T03:10:13.749Z,70.90
2022-10-29T03:12:40.973Z,70.90
2022-10-29T03:15:08.405Z,71.00
2022-10-29T03:17:35.445Z,71.00
2022-10-29T03:20:02.447Z,70.90
2022-10-29T03:22:29.986Z,70.90
2022-10-29T03:25:00.107Z,70.90
2022-10-29T03:27:30.026Z,70.90
2022-10-29T03:29:57.032Z,70.90
2022-10-29T03:32:24.531Z,70.80
2022-10-29T03:34:54.789Z,70.80
2022-10-29T03:37:24.568Z,70.80
2022-10-29T03:39:51.502Z,70.80
2022-10-29T03:42:18.430Z,70.90
2022-10-29T03:44:45.402Z,70.90
2022-10-29T03:47:12.347Z,71.00
2022-10-29T03:49:39.319Z,71.00
2022-10-29T03:52:06.410Z,70.90
2022-10-29T03:54:33.378Z,70.90
2022-10-29T03:57:00.393Z,70.70
2022-10-29T03:59:27.287Z,70.60
2022-10-29T04:01:54.412Z,70.60
2022-10-29T04:04:21.489Z,70.60
2022-10-29T04:06:48.422Z,70.50
2022-10-29T04:09:15.381Z,70.40
2022-10-29T04:11:42.311Z,70.40
2022-10-29T04:14:09.278Z,70.40
2022-10-29T04:16:36.840Z,70.60
2022-10-29T04:19:03.931Z,70.50
2022-10-29T04:23:36.663Z,70.40
2022-10-29T04:29:51.983Z,70.50
2022-10-29T04:32:18.931Z,70.50
2022-10-29T04:34:45.917Z,70.50
2022-10-29T04:37:12.854Z,70.60
2022-10-29T04:39:39.756Z,70.60
2022-10-29T04:42:06.690Z,70.60
2022-10-29T04:44:33.656Z,70.50
2022-10-29T04:47:00.595Z,70.50
2022-10-29T04:49:27.573Z,70.40
2022-10-29T04:51:54.621Z,70.50
2022-10-29T04:54:21.512Z,70.60
2022-10-29T04:56:48.663Z,70.70
2022-10-29T04:59:15.695Z,70.70
2022-10-29T05:01:42.571Z,70.70
2022-10-29T05:04:09.646Z,70.90
2022-10-29T05:06:36.575Z,71.10
2022-10-29T05:09:03.656Z,71.10
2022-10-29T05:11:30.618Z,71.10
2022-10-29T05:13:57.615Z,71.10
2022-10-29T05:16:25.077Z,71.40
2022-10-29T05:18:52.007Z,71.60
2022-10-29T05:21:18.992Z,71.70
2022-10-29T05:23:46.009Z,71.90
2022-10-29T05:26:12.954Z,71.90
2022-10-29T05:28:39.974Z,72.00
2022-10-29T05:31:06.850Z,72.10
2022-10-29T05:33:33.784Z,72.20
2022-10-29T05:36:01.456Z,72.20
2022-10-29T05:38:28.428Z,72.10
2022-10-29T05:40:58.361Z,72.00
2022-10-29T05:43:25.283Z,72.00
2022-10-29T05:45:52.250Z,71.90
2022-10-29T05:48:19.244Z,71.90
2022-10-29T05:50:46.222Z,71.80
2022-10-29T05:53:14.228Z,71.70
2022-10-29T05:55:41.316Z,71.60
2022-10-29T05:58:10.782Z,71.50
2022-10-29T06:00:39.525Z,71.40
2022-10-29T06:03:16.514Z,71.40
2022-10-29T06:05:43.461Z,71.20
2022-10-29T06:08:12.985Z,71.40
2022-10-29T06:10:40.947Z,71.30
2022-10-29T06:13:16.535Z,71.10
2022-10-29T06:15:43.825Z,70.90
2022-10-29T06:18:11.044Z,70.90
2022-10-29T06:20:38.611Z,70.90
2022-10-29T06:23:06.461Z,70.80
2022-10-29T06:25:33.932Z,70.80
2022-10-29T06:28:08.660Z,70.70
2022-10-29T06:30:36.850Z,70.60
2022-10-29T06:33:04.487Z,70.60
2022-10-29T06:35:31.495Z,70.60
2022-10-29T06:37:59.008Z,70.40
2022-10-29T06:40:26.335Z,70.20
2022-10-29T06:43:04.177Z,70.20
2022-10-29T06:45:33.181Z,70.10
2022-10-29T06:48:00.393Z,70.30
2022-10-29T06:50:27.430Z,70.20
2022-10-29T06:52:56.332Z,70.20
2022-10-29T06:55:24.173Z,70.10
2022-10-29T06:58:00.746Z,70.00
2022-10-29T07:00:28.905Z,69.60
2022-10-29T07:02:57.354Z,69.40
2022-10-29T07:05:26.152Z,69.30
2022-10-29T07:07:56.602Z,69.40
2022-10-29T07:10:24.134Z,69.40
2022-10-29T07:12:51.465Z,69.20
2022-10-29T07:15:18.466Z,69.10
2022-10-29T07:18:00.008Z,68.80
2022-10-29T07:20:28.102Z,68.50
2022-10-29T07:22:55.165Z,68.30
2022-10-29T07:25:26.359Z,67.90
2022-10-29T07:27:53.708Z,67.60
2022-10-29T07:30:21.344Z,67.30
2022-10-29T07:32:48.348Z,67.30
2022-10-29T07:35:15.461Z,67.10
2022-10-29T07:37:42.437Z,67.00
2022-10-29T07:40:10.097Z,66.80
2022-10-29T07:42:37.047Z,66.80
2022-10-29T07:45:04.238Z,66.60
2022-10-29T07:47:31.190Z,66.60
2022-10-29T07:49:58.138Z,65.90
2022-10-29T07:52:25.171Z,65.70
2022-10-29T07:54:52.130Z,65.80
2022-10-29T07:57:19.109Z,65.70
2022-10-29T07:59:47.039Z,65.70
2022-10-29T08:02:14.090Z,65.30
2022-10-29T08:04:41.037Z,65.10
2022-10-29T08:07:07.969Z,65.20
2022-10-29T08:09:34.937Z,65.00
2022-10-29T08:12:02.042Z,64.90
2022-10-29T08:14:29.024Z,65.20
2022-10-29T08:16:56.025Z,65.60
2022-10-29T08:19:23.161Z,65.00
2022-10-29T08:21:50.492Z,65.20
2022-10-29T08:24:17.500Z,64.90
2022-10-29T08:26:44.485Z,64.70
2022-10-29T08:29:11.457Z,64.70
2022-10-29T08:31:38.415Z,64.60
2022-10-29T08:34:10.773Z,64.30
2022-10-29T08:36:38.125Z,64.20
2022-10-29T08:39:05.060Z,64.10
2022-10-29T08:41:41.435Z,64.10
2022-10-29T08:44:44.528Z,63.90
2022-10-29T08:47:21.906Z,63.70
2022-10-29T08:50:41.119Z,63.50
2022-10-29T08:53:23.690Z,63.50
2022-10-29T08:55:51.482Z,63.50
2022-10-29T08:58:56.906Z,63.50
2022-10-29T09:01:24.041Z,63.50
2022-10-29T09:03:51.383Z,63.60
2022-10-29T09:06:48.317Z,63.50
2022-10-29T09:09:26.927Z,63.30
2022-10-29T09:12:26.227Z,63.30
2022-10-29T09:15:20.621Z,63.10
2022-10-29T09:17:56.011Z,63.00
2022-10-29T09:20:30.382Z,62.90
2022-10-29T09:23:13.074Z,62.80
2022-10-29T09:26:04.489Z,62.80
2022-10-29T09:29:02.500Z,62.90
2022-10-29T09:31:45.219Z,62.70
2022-10-29T09:34:23.491Z,62.60
2022-10-29T09:36:50.607Z,62.80
2022-10-29T09:39:33.962Z,62.80
2022-10-29T09:42:02.852Z,62.60
2022-10-29T09:44:46.775Z,62.50
2022-10-29T09:47:35.317Z,62.30
2022-10-29T09:50:17.505Z,62.50
2022-10-29T09:52:46.160Z,62.50
2022-10-29T09:55:39.293Z,62.50
2022-10-29T09:58:07.142Z,62.30
2022-10-29T10:00:35.528Z,62.40
2022-10-29T10:03:24.268Z,62.20
2022-10-29T10:06:02.476Z,61.80
2022-10-29T10:08:30.737Z,61.60
2022-10-29T10:11:02.131Z,61.70
2022-10-29T10:13:30.748Z,61.60
2022-10-29T10:16:07.057Z,61.90
2022-10-29T10:21:31.124Z,61.60
2022-10-29T10:23:59.114Z,61.60
2022-10-29T10:26:45.313Z,61.50
2022-10-29T10:29:22.763Z,61.10
2022-10-29T10:31:50.910Z,61.20
2022-10-29T10:34:34.061Z,61.20
2022-10-29T10:37:06.161Z,61.00
2022-10-29T10:39:36.879Z,60.90
2022-10-29T10:42:20.157Z,60.70
2022-10-29T10:44:53.113Z,60.70
2022-10-29T10:47:23.210Z,60.40
2022-10-29T10:49:50.197Z,60.30
2022-10-29T10:52:26.541Z,60.40
2022-10-29T10:55:03.587Z,60.30
2022-10-29T10:57:32.840Z,60.10
2022-10-29T11:00:07.831Z,60.20
2022-10-29T11:02:58.338Z,60.10
2022-10-29T11:05:32.840Z,60.10
2022-10-29T11:08:10.931Z,60.10
2022-10-29T11:10:42.391Z,60.20
2022-10-29T11:13:16.010Z,60.00
2022-10-29T11:15:55.089Z,59.80
2022-10-29T11:18:38.856Z,59.70
2022-10-29T11:21:19.534Z,59.70
2022-10-29T11:23:58.905Z,59.90
2022-10-29T11:26:44.617Z,60.20
2022-10-29T11:29:14.609Z,60.30
2022-10-29T11:32:10.758Z,60.60
2022-10-29T11:34:57.986Z,60.40
2022-10-29T11:37:43.385Z,60.30
2022-10-29T11:40:14.656Z,60.40
2022-10-29T11:42:41.840Z,60.60
2022-10-29T11:45:12.830Z,60.50
2022-10-29T11:48:06.766Z,60.60
2022-10-29T11:50:36.569Z,60.50
2022-10-29T11:53:50.157Z,60.60
2022-10-29T11:56:21.463Z,60.60
2022-10-29T11:58:59.668Z,60.60
2022-10-29T12:01:39.009Z,60.60
2022-10-29T12:04:18.186Z,60.70
2022-10-29T12:07:02.511Z,60.70
2022-10-29T12:09:44.626Z,60.60
2022-10-29T12:12:22.199Z,60.90
2022-10-29T12:14:57.574Z,61.00
2022-10-29T12:17:39.836Z,61.30
2022-10-29T12:20:29.504Z,61.50
2022-10-29T12:23:13.684Z,61.60
2022-10-29T12:26:02.728Z,61.70
2022-10-29T12:28:45.181Z,61.70
2022-10-29T12:31:31.629Z,61.80
2022-10-29T12:34:03.684Z,61.80
2022-10-29T12:36:59.575Z,61.80
2022-10-29T12:39:41.229Z,61.90
2022-10-29T12:42:22.172Z,61.90
2022-10-29T12:44:58.470Z,62.20
2022-10-29T12:47:35.565Z,62.10
2022-10-29T12:50:29.081Z,62.30
2022-10-29T12:53:18.577Z,62.10
2022-10-29T12:55:46.914Z,62.40
2022-10-29T12:58:53.103Z,62.70
2022-10-29T13:01:38.215Z,62.50
2022-10-29T13:04:30.996Z,62.90
2022-10-29T13:10:38.393Z,62.90
2022-10-29T13:13:23.679Z,63.00
2022-10-29T13:15:56.903Z,63.20
2022-10-29T13:18:28.007Z,63.40
2022-10-29T13:20:55.317Z,63.30
2022-10-29T13:23:22.317Z,63.20
2022-10-29T13:25:53.189Z,63.30
2022-10-29T13:28:41.332Z,63.40
2022-10-29T13:31:08.444Z,63.40
2022-10-29T13:33:38.528Z,63.50
2022-10-29T13:36:19.110Z,63.70
2022-10-29T13:39:06.470Z,63.60
2022-10-29T13:41:43.384Z,63.80
2022-10-29T13:44:12.670Z,64.10
2022-10-29T13:46:46.844Z,64.10
2022-10-29T13:49:20.372Z,64.00
2022-10-29T13:51:52.057Z,64.20
2022-10-29T13:54:33.095Z,64.20
2022-10-29T13:57:03.440Z,64.40
2022-10-29T14:00:11.930Z,64.60
2022-10-29T14:02:50.522Z,64.30
2022-10-29T14:05:38.047Z,64.70
2022-10-29T14:08:21.144Z,64.80
2022-10-29T14:10:50.198Z,64.50
2022-10-29T14:13:47.778Z,65.00
2022-10-29T14:16:15.932Z,64.80
2022-10-29T14:18:44.359Z,65.10
2022-10-29T14:21:27.643Z,65.00
2022-10-29T14:23:58.951Z,65.20
2022-10-29T14:26:26.323Z,65.10
2022-10-29T14:28:53.272Z,65.30
2022-10-29T14:31:24.464Z,65.20
2022-10-29T14:33:54.719Z,65.40
2022-10-29T14:36:41.250Z,65.30
2022-10-29T14:39:32.451Z,65.30
2022-10-29T14:42:00.049Z,65.40
2022-10-29T14:44:29.406Z,65.70
2022-10-29T14:47:07.112Z,65.70
2022-10-29T14:49:39.548Z,65.70
2022-10-29T14:52:38.247Z,65.90
2022-10-29T14:55:19.636Z,65.70
2022-10-29T14:58:12.481Z,65.90
2022-10-29T15:00:40.103Z,66.10
2022-10-29T15:03:07.665Z,66.10
2022-10-29T15:05:36.739Z,66.30
2022-10-29T15:08:31.358Z,66.40
2022-10-29T15:10:59.343Z,66.20
2022-10-29T15:13:29.710Z,66.70
2022-10-29T15:16:31.210Z,66.80
2022-10-29T15:18:58.548Z,66.90
2022-10-29T15:21:33.176Z,67.00
2022-10-29T15:24:06.452Z,66.70
2022-10-29T15:26:35.137Z,67.00
2022-10-29T15:29:03.109Z,67.00
2022-10-29T15:31:34.867Z,67.20
2022-10-29T15:34:08.546Z,67.20
2022-10-29T15:36:52.743Z,67.00
2022-10-29T15:39:23.044Z,66.90
2022-10-29T15:41:50.567Z,67.30
2022-10-29T15:44:37.792Z,67.40
2022-10-29T15:47:41.948Z,67.40
2022-10-29T15:50:13.782Z,67.20
2022-10-29T15:52:52.738Z,68.00
2022-10-29T15:55:26.819Z,67.70
2022-10-29T15:58:05.050Z,67.90
2022-10-29T16:00:34.678Z,68.10
2022-10-29T16:03:22.925Z,68.00
2022-10-29T16:06:04.033Z,67.70
2022-10-29T16:08:51.312Z,67.90
2022-10-29T16:11:22.132Z,68.20
2022-10-29T16:13:54.980Z,68.30
2022-10-29T16:16:32.049Z,68.40
2022-10-29T16:18:59.136Z,68.30
2022-10-29T16:21:28.670Z,68.40
2022-10-29T16:23:55.660Z,68.30
2022-10-29T16:26:26.190Z,68.40
2022-10-29T16:28:53.511Z,68.40
2022-10-29T16:31:26.059Z,68.50
2022-10-29T16:33:58.744Z,68.50
2022-10-29T16:36:28.553Z,68.80
2022-10-29T16:38:55.713Z,68.80
2022-10-29T16:41:24.530Z,68.80
2022-10-29T16:43:57.544Z,69.00
2022-10-29T16:46:24.729Z,69.00
2022-10-29T16:48:54.190Z,69.10
2022-10-29T16:51:21.245Z,69.00
2022-10-29T16:53:54.709Z,69.10
2022-10-29T16:56:22.705Z,69.20
2022-10-29T16:58:49.815Z,69.00
2022-10-29T17:01:17.191Z,69.10
2022-10-29T17:03:44.595Z,69.10
2022-10-29T17:06:14.555Z,69.10
2022-10-29T17:08:41.489Z,69.20
2022-10-29T17:11:10.721Z,69.40
2022-10-29T17:13:40.658Z,69.20
2022-10-29T17:16:14.710Z,69.20
2022-10-29T17:18:42.785Z,69.30
2022-10-29T17:21:10.026Z,69.40
2022-10-29T17:23:36.996Z,69.40
2022-10-29T17:26:04.043Z,69.50
2022-10-29T17:28:31.034Z,69.90
2022-10-29T17:30:58.052Z,70.00
2022-10-29T17:33:25.166Z,70.10
2022-10-29T17:36:03.891Z,70.10
2022-10-29T17:38:31.256Z,70.20
2022-10-29T17:40:58.327Z,70.10
2022-10-29T17:43:25.445Z,70.10
2022-10-29T17:45:52.571Z,70.10
2022-10-29T17:48:23.971Z,70.20
2022-10-29T17:50:53.120Z,70.10
2022-10-29T17:53:20.407Z,70.20
2022-10-29T17:55:47.430Z,70.10
2022-10-29T17:58:17.955Z,70.30
2022-10-29T18:00:45.598Z,70.20
2022-10-29T18:03:12.657Z,70.30
2022-10-29T18:05:39.712Z,70.40
2022-10-29T18:08:06.726Z,70.40
2022-10-29T18:10:34.354Z,70.40
2022-10-29T18:13:01.361Z,70.40
2022-10-29T18:15:28.464Z,70.40
2022-10-29T18:17:56.125Z,70.40
2022-10-29T18:20:23.306Z,70.30
2022-10-29T18:22:54.799Z,70.40
2022-10-29T18:25:22.959Z,70.40
2022-10-29T18:27:55.660Z,70.20
2022-10-29T18:30:23.166Z,70.40
2022-10-29T18:32:50.325Z,70.50
2022-10-29T18:35:17.478Z,70.70
2022-10-29T18:37:46.153Z,70.70
2022-10-29T18:40:15.932Z,70.80
2022-10-29T18:42:42.908Z,70.90
2022-10-29T18:45:10.605Z,70.90
2022-10-29T18:47:37.606Z,70.90
2022-10-29T18:50:06.722Z,70.80
2022-10-29T18:52:33.938Z,70.70
2022-10-29T18:55:01.554Z,70.70
2022-10-29T18:57:29.037Z,70.80
2022-10-29T18:59:56.264Z,71.00
2022-10-29T19:02:23.381Z,71.00
2022-10-29T19:04:50.555Z,71.00
2022-10-29T19:07:17.547Z,70.90
2022-10-29T19:09:44.822Z,70.80
2022-10-29T19:12:13.107Z,70.80
2022-10-29T19:14:40.224Z,70.80
2022-10-29T19:17:07.523Z,71.00
2022-10-29T19:19:34.636Z,71.10
2022-10-29T19:22:01.972Z,71.10
2022-10-29T19:24:29.092Z,71.20
2022-10-29T19:26:56.127Z,71.30
2022-10-29T19:29:23.123Z,71.20
2022-10-29T19:31:50.267Z,71.20
2022-10-29T19:34:17.390Z,71.30
2022-10-29T19:36:44.779Z,71.40
2022-10-29T19:39:11.806Z,71.40
2022-10-29T19:41:38.833Z,71.40
2022-10-29T19:44:06.583Z,71.30
2022-10-29T19:46:33.590Z,71.00
2022-10-29T19:49:01.357Z,71.10
2022-10-29T19:51:28.501Z,71.00
2022-10-29T19:53:57.926Z,71.10
2022-10-29T19:56:24.908Z,70.90
2022-10-29T19:58:51.996Z,71.00
2022-10-29T20:01:21.659Z,71.00
2022-10-29T20:03:54.931Z,71.10
2022-10-29T20:06:21.975Z,71.00
2022-10-29T20:08:51.823Z,71.00
2022-10-29T20:11:21.967Z,71.00
2022-10-29T20:13:48.966Z,71.00
2022-10-29T20:16:21.697Z,71.00
2022-10-29T20:18:51.693Z,70.80
2022-10-29T20:21:18.900Z,70.80
2022-10-29T20:23:49.936Z,70.70
2022-10-29T20:26:19.556Z,70.80
2022-10-29T20:28:46.795Z,70.90
2022-10-29T20:31:23.598Z,70.90
2022-10-29T20:33:55.833Z,70.80
2022-10-29T20:36:31.724Z,71.00
2022-10-29T20:38:59.047Z,71.10
2022-10-29T20:41:26.242Z,71.20
2022-10-29T20:43:54.661Z,71.30
2022-10-29T20:46:22.440Z,71.40
2022-10-29T20:48:49.462Z,71.30
2022-10-29T20:51:17.267Z,71.40
2022-10-29T20:53:44.569Z,71.50
2022-10-29T20:56:15.008Z,71.60
2022-10-29T20:58:43.554Z,71.70
2022-10-29T21:01:15.466Z,71.80
2022-10-29T21:03:52.865Z,71.80
2022-10-29T21:06:20.213Z,71.80
2022-10-29T21:08:48.054Z,71.90
2022-10-29T21:11:15.609Z,72.00
2022-10-29T21:13:46.324Z,72.00
2022-10-29T21:16:20.708Z,72.10
2022-10-29T21:18:53.835Z,72.00
2022-10-29T21:21:21.220Z,71.90
2022-10-29T21:23:48.174Z,71.90
2022-10-29T21:26:16.878Z,71.80
2022-10-29T21:28:43.957Z,72.00
2022-10-29T21:31:11.263Z,71.80
2022-10-29T21:33:39.393Z,71.80
2022-10-29T21:36:06.663Z,71.90
2022-10-29T21:42:07.197Z,71.50
2022-10-29T21:44:34.275Z,71.90
2022-10-29T21:47:01.233Z,71.80
2022-10-29T21:49:28.235Z,71.80
2022-10-29T21:51:55.268Z,71.80
2022-10-29T21:54:24.408Z,71.70
2022-10-29T21:56:55.677Z,71.70
2022-10-29T21:59:22.599Z,71.70
2022-10-29T22:01:49.622Z,71.90
2022-10-29T22:04:16.778Z,71.70
2022-10-29T22:06:43.780Z,71.60
2022-10-29T22:09:14.284Z,71.50
2022-10-29T22:11:41.339Z,71.50
2022-10-29T22:14:09.996Z,71.50
2022-10-29T22:16:36.971Z,71.40
2022-10-29T22:19:03.948Z,71.50
2022-10-29T22:21:32.460Z,71.60
2022-10-29T22:23:59.408Z,71.60
2022-10-29T22:26:27.623Z,71.40
2022-10-29T22:28:54.744Z,71.40
2022-10-29T22:31:22.493Z,71.50
2022-10-29T22:33:49.619Z,71.50
2022-10-29T22:36:21.093Z,71.40
2022-10-29T22:38:52.953Z,71.40
2022-10-29T22:41:20.021Z,71.40
2022-10-29T22:43:46.995Z,71.40
2022-10-29T22:46:15.138Z,71.40
2022-10-29T22:48:43.614Z,71.50
2022-10-29T22:51:14.675Z,71.50
2022-10-29T22:53:42.635Z,71.50
2022-10-29T22:56:26.526Z,71.50
2022-10-29T22:58:53.865Z,71.50
2022-10-29T23:01:25.526Z,71.50
2022-10-29T23:03:52.705Z,71.60
2022-10-29T23:06:20.672Z,71.60
2022-10-29T23:08:47.931Z,71.70
2022-10-29T23:11:19.275Z,71.60
2022-10-29T23:13:56.539Z,71.60
2022-10-29T23:16:24.387Z,71.60
2022-10-29T23:18:52.235Z,71.60
2022-10-29T23:21:19.318Z,71.70
2022-10-29T23:23:46.422Z,71.60
2022-10-29T23:26:15.139Z,71.60
2022-10-29T23:28:42.330Z,71.60
2022-10-29T23:31:20.239Z,71.60
2022-10-29T23:33:49.063Z,71.60
2022-10-29T23:36:16.427Z,71.70
2022-10-29T23:38:43.744Z,71.70
2022-10-29T23:41:12.128Z,71.80
2022-10-29T23:43:39.085Z,71.80
2022-10-29T23:46:06.827Z,71.90
2022-10-29T23:48:34.022Z,71.90
2022-10-29T23:51:01.048Z,72.10
2022-10-29T23:53:27.974Z,72.20
2022-10-29T23:55:54.929Z,72.20
2022-10-29T23:58:21.856Z,72.20
